Time;durP1;ratioP1;P1;durP2;ratioP2;P2;SDS_P1;SDS_P2;PMS_P1;PMS_P2;Temp;Humidity;BMP_temperature;BMP_pressure;BME280_temperature;BME280_humidity;BME280_pressure;Samples;Min_cycle;Max_cycle;Signal;HPM_P1;HPM_P2
2023/05/23 00:00:39;;;;;;;9.70;7.20;;;;;;;11.12;67.80;96960.48;108796;1250;99890;-73
2023/05/23 00:03:30;;;;;;;10.30;6.80;;;;;;;11.07;67.78;96956.56;108436;1250;95575;-72
2023/05/23 00:05:58;;;;;;;10.00;7.00;;;;;;;11.01;67.82;96954.15;108799;1250;96127;-74
2023/05/23 00:08:26;;;;;;;8.90;7.00;;;;;;;11.00;67.96;96951.63;108877;1250;102119;-76
2023/05/23 00:10:54;;;;;;;12.70;6.80;;;;;;;10.98;68.05;96952.62;108930;1250;101172;-73
2023/05/23 00:13:22;;;;;;;12.30;7.10;;;;;;;10.96;68.16;96954.71;108845;1250;99995;-76
2023/05/23 00:15:51;;;;;;;10.30;7.50;;;;;;;10.94;68.15;96952.06;108903;1250;95869;-73
2023/05/23 00:18:19;;;;;;;11.20;7.30;;;;;;;10.89;68.29;96949.96;108602;1250;228906;-73
2023/05/23 00:20:47;;;;;;;9.40;7.20;;;;;;;10.85;68.20;96950.39;108885;1251;103381;-72
2023/05/23 00:23:17;;;;;;;11.20;7.00;;;;;;;10.82;68.22;96948.08;108905;1250;101402;-72
2023/05/23 00:25:51;;;;;;;9.90;6.80;;;;;;;10.80;68.30;96948.30;108869;1250;99635;-73
2023/05/23 00:28:19;;;;;;;10.10;6.40;;;;;;;10.79;68.18;96948.27;108909;1250;95597;-72
2023/05/23 00:30:49;;;;;;;9.20;6.10;;;;;;;10.77;68.25;96947.42;108917;1250;96395;-73
2023/05/23 00:33:20;;;;;;;10.70;6.80;;;;;;;10.73;68.26;96947.80;108683;1250;103723;-75
2023/05/23 00:35:48;;;;;;;11.50;6.40;;;;;;;10.69;68.42;96948.88;108909;1251;99970;-73
2023/05/23 00:38:17;;;;;;;10.00;6.90;;;;;;;10.65;68.34;96947.88;108790;1250;100034;-73
2023/05/23 00:40:45;;;;;;;8.40;6.10;;;;;;;10.58;68.42;96951.39;108857;1250;95581;-73
2023/05/23 00:43:13;;;;;;;8.50;5.80;;;;;;;10.53;68.44;96954.13;108979;1251;96013;-74
2023/05/23 00:45:41;;;;;;;12.40;6.70;;;;;;;10.50;68.58;96955.92;108933;1250;103952;-73
2023/05/23 00:48:09;;;;;;;10.80;6.70;;;;;;;10.45;68.59;96960.52;108916;1250;101429;-75
2023/05/23 00:50:37;;;;;;;7.70;6.30;;;;;;;10.41;68.64;96960.55;108849;1251;100090;-73
2023/05/23 00:53:05;;;;;;;10.90;6.60;;;;;;;10.38;68.77;96957.89;108841;1250;95788;-75
2023/05/23 00:55:34;;;;;;;8.00;6.20;;;;;;;10.36;68.82;96960.48;108955;1250;96511;-73
2023/05/23 00:58:02;;;;;;;9.20;6.90;;;;;;;10.35;68.88;96958.33;108924;1251;103566;-74
2023/05/23 01:00:30;;;;;;;9.10;6.50;;;;;;;10.33;68.94;96958.27;108922;1252;101100;-73
2023/05/23 01:03:00;;;;;;;10.20;6.60;;;;;;;10.31;68.93;96958.52;108933;1250;99993;-75
2023/05/23 01:05:28;;;;;;;8.10;6.60;;;;;;;10.29;68.95;96956.38;108881;1254;95596;-72
2023/05/23 01:07:56;;;;;;;12.70;6.60;;;;;;;10.27;68.89;96954.27;108854;1250;96056;-73
2023/05/23 01:10:28;;;;;;;8.70;7.10;;;;;;;10.24;68.91;96953.36;108918;1250;103689;-75
2023/05/23 01:13:05;;;;;;;10.10;6.80;;;;;;;10.19;68.98;96955.46;108834;1250;101373;-74
2023/05/23 01:15:42;;;;;;;8.60;6.60;;;;;;;10.16;69.17;96954.26;108860;1251;99678;-72
2023/05/23 01:18:18;;;;;;;10.90;7.60;;;;;;;10.14;69.09;96955.87;108853;1251;95833;-73
2023/05/23 01:20:56;;;;;;;10.50;6.80;;;;;;;10.10;69.10;96955.80;108866;1250;96010;-72
2023/05/23 01:23:58;;;;;;;7.80;6.50;;;;;;;10.05;69.17;96953.93;108914;1250;102598;-73
2023/05/23 01:26:55;;;;;;;10.80;7.70;;;;;;;9.99;69.13;96952.95;108903;1250;101606;-73
2023/05/23 01:29:28;;;;;;;8.90;6.90;;;;;;;9.86;69.17;96955.30;108198;1258;100110;-75
2023/05/23 01:31:58;;;;;;;11.70;7.10;;;;;;;9.75;69.26;96952.23;108074;1258;95731;-75
2023/05/23 01:34:27;;;;;;;8.60;6.20;;;;;;;9.73;69.43;96950.38;108150;1261;96239;-76
2023/05/23 01:36:55;;;;;;;11.20;6.70;;;;;;;9.69;69.62;96947.98;108157;1258;102912;-72
2023/05/23 01:39:24;;;;;;;10.20;7.20;;;;;;;9.64;69.63;96946.45;108235;1259;101479;-73
2023/05/23 01:41:54;;;;;;;10.10;7.90;;;;;;;9.65;69.86;96946.45;108206;1259;99989;-72
2023/05/23 01:44:22;;;;;;;11.30;7.50;;;;;;;9.70;69.97;96943.96;108211;1259;95675;-73
2023/05/23 01:46:50;;;;;;;8.30;6.80;;;;;;;9.73;69.94;96943.54;108133;1260;96087;-75
2023/05/23 01:49:21;;;;;;;9.30;6.70;;;;;;;9.73;69.66;96945.32;108245;1259;103920;-73
2023/05/23 01:51:49;;;;;;;11.20;6.70;;;;;;;9.71;69.52;96942.02;108315;1260;101068;-72
2023/05/23 01:54:18;;;;;;;12.20;8.00;;;;;;;9.69;69.66;96939.61;108214;1259;100421;-74
2023/05/23 01:56:48;;;;;;;9.60;6.80;;;;;;;9.67;69.68;96937.35;108222;1260;95684;-73
2023/05/23 01:59:16;;;;;;;10.10;6.80;;;;;;;9.63;69.74;96936.96;108130;1259;96046;-75
2023/05/23 02:01:44;;;;;;;9.20;7.10;;;;;;;9.61;69.76;96936.90;108314;1259;103388;-71
2023/05/23 02:04:13;;;;;;;10.60;7.30;;;;;;;9.59;69.68;96930.43;108168;1261;101504;-72
2023/05/23 02:06:41;;;;;;;9.30;7.00;;;;;;;9.55;69.67;96933.59;108579;1251;99842;-72
2023/05/23 02:09:10;;;;;;;9.80;7.20;;;;;;;9.53;69.79;96931.31;108863;1251;95612;-72
2023/05/23 02:11:38;;;;;;;11.80;7.10;;;;;;;9.52;69.75;96932.80;108894;1251;96062;-72
2023/05/23 02:14:06;;;;;;;11.40;7.10;;;;;;;9.50;69.76;96931.33;108899;1253;102091;-76
2023/05/23 02:16:35;;;;;;;8.80;6.40;;;;;;;9.47;69.78;96929.64;108384;1262;101499;-72
2023/05/23 02:19:03;;;;;;;11.30;7.20;;;;;;;9.43;69.88;96929.23;108729;1251;99980;-72
2023/05/23 02:21:31;;;;;;;10.00;6.60;;;;;;;9.40;69.92;96930.77;108865;1250;95523;-72
2023/05/23 02:23:59;;;;;;;10.50;6.50;;;;;;;9.38;69.89;96929.73;108943;1251;96086;-72
2023/05/23 02:26:27;;;;;;;9.90;7.20;;;;;;;9.36;69.92;96932.55;108905;1251;111675;-73
2023/05/23 02:28:55;;;;;;;9.30;6.80;;;;;;;9.33;70.06;96931.03;108913;1251;101353;-72
2023/05/23 02:31:23;;;;;;;10.10;6.80;;;;;;;9.29;70.06;96929.02;108877;1251;100222;-72
2023/05/23 02:33:52;;;;;;;7.70;6.50;;;;;;;9.28;70.20;96926.10;108842;1250;95848;-72
2023/05/23 02:36:20;;;;;;;9.40;7.20;;;;;;;9.26;70.27;96925.82;108959;1250;96001;-72
2023/05/23 02:38:48;;;;;;;12.00;7.40;;;;;;;9.26;70.39;96924.04;108876;1251;103622;-72
2023/05/23 02:41:16;;;;;;;9.90;7.20;;;;;;;9.23;70.44;96920.81;108903;1251;101192;-72
2023/05/23 02:43:47;;;;;;;11.40;7.20;;;;;;;9.13;70.44;96924.41;108898;1250;100021;-72
2023/05/23 02:46:15;;;;;;;15.20;7.60;;;;;;;9.05;70.54;96922.31;108852;1250;95591;-73
2023/05/23 02:48:44;;;;;;;10.40;7.30;;;;;;;9.02;70.78;96922.56;108897;1251;95543;-74
2023/05/23 02:51:13;;;;;;;12.50;8.10;;;;;;;9.06;70.93;96914.84;108888;1250;103706;-72
2023/05/23 02:53:41;;;;;;;12.90;7.30;;;;;;;9.09;70.93;96918.50;108889;1250;101169;-72
2023/05/23 02:56:09;;;;;;;9.90;7.30;;;;;;;9.10;70.83;96918.38;108866;1250;100197;-73
2023/05/23 02:58:38;;;;;;;9.80;7.20;;;;;;;9.07;70.82;96919.35;108890;1250;95600;-72
2023/05/23 03:01:07;;;;;;;9.20;6.80;;;;;;;9.03;70.81;96920.16;108944;1250;96057;-72
2023/05/23 03:03:35;;;;;;;11.90;7.40;;;;;;;9.03;70.78;96915.77;108930;1251;103588;-72
2023/05/23 03:06:03;;;;;;;9.20;7.30;;;;;;;9.00;70.90;96919.13;108885;1250;101799;-76
2023/05/23 03:08:31;;;;;;;12.10;7.10;;;;;;;8.97;70.85;96917.35;108879;1251;99518;-75
2023/05/23 03:11:00;;;;;;;10.00;6.80;;;;;;;8.96;70.78;96917.73;108635;1251;95595;-75
2023/05/23 03:13:28;;;;;;;11.20;7.90;;;;;;;8.95;70.87;96919.09;108829;1251;96034;-73
2023/05/23 03:15:56;;;;;;;9.70;7.30;;;;;;;8.94;70.86;96916.36;108908;1251;103548;-72
2023/05/23 03:18:25;;;;;;;8.80;6.90;;;;;;;8.94;70.91;96913.06;108924;1251;101440;-72
2023/05/23 03:20:53;;;;;;;9.90;7.30;;;;;;;8.93;70.98;96911.59;108872;1251;100086;-72
2023/05/23 03:23:21;;;;;;;9.80;7.70;;;;;;;8.91;70.96;96914.86;108849;1251;95585;-75
2023/05/23 03:25:49;;;;;;;11.10;7.90;;;;;;;8.90;70.98;96911.02;108838;1251;95976;-72
2023/05/23 03:28:17;;;;;;;11.40;7.50;;;;;;;8.90;71.13;96907.95;108827;1251;104861;-72
2023/05/23 03:30:45;;;;;;;10.70;7.40;;;;;;;8.90;71.23;96905.09;108945;1250;101526;-72
2023/05/23 03:33:13;;;;;;;12.10;7.10;;;;;;;8.90;71.25;96906.00;108859;1250;99767;-73
2023/05/23 03:35:41;;;;;;;9.00;7.00;;;;;;;8.92;71.31;96907.54;108861;1250;95540;-73
2023/05/23 03:38:09;;;;;;;11.80;7.10;;;;;;;8.93;71.35;96908.14;108902;1251;96021;-75
2023/05/23 03:40:37;;;;;;;8.40;7.00;;;;;;;8.92;71.36;96907.48;108879;1251;103141;-75
2023/05/23 03:43:06;;;;;;;11.20;7.50;;;;;;;8.94;71.45;96903.86;108906;1250;99921;-72
2023/05/23 03:45:35;;;;;;;14.70;8.20;;;;;;;8.95;71.53;96906.55;108656;1251;99856;-72
2023/05/23 03:48:03;;;;;;;9.50;7.90;;;;;;;8.97;71.61;96910.31;108911;1250;95687;-72
2023/05/23 03:50:31;;;;;;;11.10;7.80;;;;;;;8.98;71.66;96912.13;108839;1250;95925;-73
2023/05/23 03:52:59;;;;;;;10.20;7.90;;;;;;;8.99;71.75;96911.55;108903;1250;103581;-71
2023/05/23 03:55:30;;;;;;;15.40;8.20;;;;;;;9.02;71.84;96907.23;108880;1251;101870;-71
2023/05/23 03:57:59;;;;;;;18.00;9.80;;;;;;;9.07;71.95;96905.64;108655;1250;99872;-71
2023/05/23 04:00:27;;;;;;;12.80;9.60;;;;;;;9.12;72.05;96903.05;108896;1250;95510;-71
2023/05/23 04:02:56;;;;;;;14.70;10.70;;;;;;;9.16;72.14;96901.02;108709;1251;96049;-71
2023/05/23 04:05:24;;;;;;;18.90;12.10;;;;;;;9.20;72.21;96898.83;108876;1250;103524;-71
2023/05/23 04:07:52;;;;;;;17.70;12.20;;;;;;;9.25;72.20;96897.61;108848;1250;101224;-71
2023/05/23 04:10:20;;;;;;;20.70;12.00;;;;;;;9.31;72.21;96895.82;108890;1250;99861;-74
2023/05/23 04:12:48;;;;;;;15.00;9.90;;;;;;;9.37;72.33;96894.97;108624;1250;95639;-71
2023/05/23 04:15:16;;;;;;;18.60;10.00;;;;;;;9.42;72.28;96895.09;108696;1251;96069;-71
2023/05/23 04:17:44;;;;;;;13.70;9.70;;;;;;;9.48;72.20;96893.33;108827;1251;103541;-72
2023/05/23 04:20:13;;;;;;;13.80;8.80;;;;;;;9.54;72.13;96892.54;108900;1250;101181;-71
2023/05/23 04:22:41;;;;;;;12.60;8.60;;;;;;;9.59;72.10;96891.27;108632;1251;100003;-71
2023/05/23 04:25:09;;;;;;;17.80;9.70;;;;;;;9.65;72.10;96890.23;108829;1250;95736;-71
2023/05/23 04:27:39;;;;;;;12.40;9.10;;;;;;;9.70;72.35;96888.15;108918;1250;95798;-74
2023/05/23 04:30:09;;;;;;;14.40;8.80;;;;;;;9.76;72.40;96890.45;108920;1250;103305;-72
2023/05/23 04:32:37;;;;;;;13.10;9.30;;;;;;;9.81;72.30;96887.95;108799;1251;102094;-71
2023/05/23 04:35:06;;;;;;;16.40;8.60;;;;;;;9.87;72.30;96887.20;108894;1250;99797;-72
2023/05/23 04:37:34;;;;;;;14.80;9.70;;;;;;;9.94;72.23;96884.41;108777;1250;95756;-74
2023/05/23 04:40:02;;;;;;;14.10;9.50;;;;;;;10.01;72.14;96882.08;108922;1250;96000;-72
2023/05/23 04:42:32;;;;;;;13.40;9.40;;;;;;;10.07;72.16;96875.67;108860;1250;103291;-73
2023/05/23 04:45:01;;;;;;;15.60;9.00;;;;;;;10.16;72.29;96877.88;108918;1250;101251;-72
2023/05/23 04:47:33;;;;;;;16.60;9.20;;;;;;;10.24;72.28;96876.34;108872;1250;99929;-74
2023/05/23 04:50:02;;;;;;;;;;;;;;;10.31;72.18;96874.60;108852;1250;95619;-72
2023/05/23 04:52:32;;;;;;;14.60;8.30;;;;;;;10.37;72.33;96871.23;108942;1250;96156;-73
2023/05/23 04:55:00;;;;;;;15.20;10.20;;;;;;;10.43;72.32;96871.20;108890;1251;112178;-74
2023/05/23 04:57:29;;;;;;;16.50;9.70;;;;;;;10.49;72.32;96871.77;108849;1251;101254;-75
2023/05/23 04:59:57;;;;;;;17.00;9.60;;;;;;;10.55;72.30;96866.64;108898;1251;99889;-71
2023/05/23 05:02:25;;;;;;;14.10;10.50;;;;;;;10.62;72.39;96867.07;108686;1250;96236;-72
2023/05/23 05:04:54;;;;;;;12.60;10.20;;;;;;;10.70;72.61;96865.23;108855;1250;96051;-75
2023/05/23 05:07:22;;;;;;;18.20;10.40;;;;;;;10.78;72.94;96864.38;108800;1249;103594;-73
2023/05/23 05:09:50;;;;;;;14.40;9.70;;;;;;;10.88;72.79;96859.91;108908;1250;101502;-72
2023/05/23 05:12:18;;;;;;;13.60;9.20;;;;;;;10.98;72.82;96856.52;108862;1250;100053;-72
2023/05/23 05:14:46;;;;;;;17.20;9.10;;;;;;;11.08;72.66;96856.27;108846;1250;95559;-72
2023/05/23 05:17:14;;;;;;;19.30;8.90;;;;;;;11.19;72.43;96850.08;108711;1250;96191;-72
2023/05/23 05:19:46;;;;;;;15.80;9.00;;;;;;;11.29;72.34;96850.36;108865;1250;102486;-75
2023/05/23 05:22:14;;;;;;;19.50;9.80;;;;;;;11.39;72.18;96848.46;108920;1250;101482;-73
2023/05/23 05:24:42;;;;;;;17.30;8.80;;;;;;;11.49;72.16;96847.04;108873;1250;99060;-72
2023/05/23 05:27:10;;;;;;;13.20;8.80;;;;;;;11.59;71.95;96844.05;108873;1250;95563;-72
2023/05/23 05:29:39;;;;;;;22.70;10.80;;;;;;;11.69;71.98;96845.02;108888;1250;96075;-75
2023/05/23 05:32:08;;;;;;;13.20;9.80;;;;;;;11.78;72.14;96847.55;108926;1250;103606;-72
2023/05/23 05:34:36;;;;;;;15.10;9.40;;;;;;;11.89;72.24;96849.02;108864;1250;101529;-72
2023/05/23 05:37:05;;;;;;;17.60;9.90;;;;;;;11.99;72.08;96845.90;108903;1250;99902;-72
2023/05/23 05:39:33;;;;;;;14.20;9.20;;;;;;;12.09;71.95;96843.81;108724;1250;96103;-72
2023/05/23 05:42:02;;;;;;;13.30;8.50;;;;;;;12.20;72.02;96845.54;108887;1250;96563;-72
2023/05/23 05:44:30;;;;;;;12.90;8.80;;;;;;;12.30;71.97;96843.89;108849;1250;103880;-72
2023/05/23 05:46:58;;;;;;;15.20;8.50;;;;;;;12.41;71.87;96844.73;108872;1250;100268;-72
2023/05/23 05:49:27;;;;;;;14.40;8.20;;;;;;;12.52;71.71;96839.79;108679;1251;100230;-73
2023/05/23 05:51:55;;;;;;;15.20;9.10;;;;;;;12.63;71.41;96835.70;108829;1250;95597;-71
2023/05/23 05:54:23;;;;;;;14.90;8.50;;;;;;;12.75;71.07;96830.59;108763;1253;95901;-73
2023/05/23 05:56:51;;;;;;;11.40;8.70;;;;;;;12.87;71.09;96828.13;108802;1251;103440;-73
2023/05/23 05:59:19;;;;;;;15.70;8.70;;;;;;;13.00;71.08;96822.86;108878;1250;101395;-72
2023/05/23 06:01:49;;;;;;;14.70;8.70;;;;;;;13.12;70.97;96821.11;108912;1249;99990;-72
2023/05/23 06:04:18;;;;;;;16.00;8.90;;;;;;;13.25;70.77;96818.40;108859;1250;95691;-72
2023/05/23 06:06:46;;;;;;;13.90;8.70;;;;;;;13.38;70.64;96812.98;108895;1251;96021;-72
2023/05/23 06:09:14;;;;;;;15.60;8.00;;;;;;;13.49;70.33;96809.39;108919;1250;103544;-74
2023/05/23 06:11:42;;;;;;;12.60;8.10;;;;;;;13.60;70.11;96807.36;108914;1249;101400;-71
2023/05/23 06:14:10;;;;;;;15.00;8.80;;;;;;;13.72;69.90;96802.80;108979;1250;99900;-72
2023/05/23 06:16:38;;;;;;;13.70;8.40;;;;;;;13.83;69.63;96803.96;108853;1250;96243;-71
2023/05/23 06:19:07;;;;;;;13.10;8.00;;;;;;;13.94;69.53;96799.74;108923;1250;95997;-72
2023/05/23 06:21:35;;;;;;;11.80;8.10;;;;;;;14.06;69.53;96799.27;108879;1251;103286;-72
2023/05/23 06:24:03;;;;;;;16.50;8.10;;;;;;;14.19;69.46;96801.23;108706;1250;111288;-72
2023/05/23 06:26:32;;;;;;;13.10;7.60;;;;;;;14.30;69.07;96793.79;108847;1250;99615;-73
2023/05/23 06:29:00;;;;;;;15.40;7.50;;;;;;;14.42;68.71;96792.45;108895;1250;95566;-73
2023/05/23 06:31:28;;;;;;;11.40;7.50;;;;;;;14.55;68.94;96794.86;108750;1253;96189;-73
2023/05/23 06:33:56;;;;;;;14.90;7.50;;;;;;;14.68;68.69;96788.30;108937;1250;103257;-74
2023/05/23 06:36:24;;;;;;;13.70;7.20;;;;;;;14.82;68.55;96787.77;108855;1250;101088;-72
2023/05/23 06:38:52;;;;;;;12.30;7.70;;;;;;;14.95;68.34;96784.77;108883;1250;98317;-72
2023/05/23 06:41:21;;;;;;;13.90;7.20;;;;;;;15.07;67.94;96788.66;108865;1250;95570;-72
2023/05/23 06:43:49;;;;;;;10.90;6.50;;;;;;;15.19;67.51;96788.14;108853;1250;96071;-75
2023/05/23 06:46:17;;;;;;;14.40;7.60;;;;;;;15.31;67.25;96784.63;108934;1251;103535;-73
2023/05/23 06:48:45;;;;;;;14.90;7.50;;;;;;;15.44;66.93;96781.05;108903;1250;101580;-73
2023/05/23 06:51:14;;;;;;;14.30;7.40;;;;;;;15.59;67.14;96781.70;108872;1250;99934;-76
2023/05/23 06:53:42;;;;;;;13.20;7.00;;;;;;;15.76;66.85;96782.42;108844;1250;95537;-73
2023/05/23 06:56:10;;;;;;;9.00;6.60;;;;;;;15.91;66.58;96773.88;108901;1250;96448;-73
2023/05/23 06:58:38;;;;;;;10.70;7.00;;;;;;;16.05;66.39;96772.52;108918;1250;103635;-73
2023/05/23 07:01:06;;;;;;;11.00;6.50;;;;;;;16.22;66.08;96768.72;108876;1250;101295;-74
2023/05/23 07:03:37;;;;;;;12.20;6.40;;;;;;;16.37;66.44;96767.50;108878;1250;98689;-73
2023/05/23 07:06:05;;;;;;;9.70;6.30;;;;;;;16.53;66.35;96768.30;108921;1250;95710;-73
2023/05/23 07:08:33;;;;;;;10.20;6.40;;;;;;;16.66;66.01;96766.31;108851;1250;95606;-74
2023/05/23 07:11:02;;;;;;;9.40;6.30;;;;;;;16.81;66.07;96762.52;108849;1250;103526;-73
2023/05/23 07:13:30;;;;;;;10.10;6.30;;;;;;;16.97;65.73;96757.63;108674;1251;100104;-73
2023/05/23 07:15:59;;;;;;;11.20;6.50;;;;;;;17.14;65.78;96751.62;108829;1250;100079;-74
2023/05/23 07:18:27;;;;;;;8.40;5.80;;;;;;;17.32;65.11;96751.89;108834;1250;95569;-73
2023/05/23 07:20:55;;;;;;;11.10;6.60;;;;;;;17.45;64.33;96748.85;108888;1250;96018;-75
2023/05/23 07:23:24;;;;;;;7.80;6.30;;;;;;;17.60;64.35;96748.88;108757;1250;103125;-75
2023/05/23 07:25:52;;;;;;;11.00;6.30;;;;;;;17.78;64.64;96745.79;108803;1250;100221;-73
2023/05/23 07:28:21;;;;;;;9.90;6.40;;;;;;;17.95;64.39;96743.65;108796;1250;99777;-73
2023/05/23 07:30:49;;;;;;;12.10;5.90;;;;;;;18.12;64.45;96741.73;108875;1250;95574;-73
2023/05/23 07:33:17;;;;;;;8.70;6.00;;;;;;;18.29;63.90;96745.57;108586;1255;96350;-75
2023/05/23 07:35:45;;;;;;;9.00;5.90;;;;;;;18.47;63.43;96742.30;108938;1250;103804;-74
2023/05/23 07:38:14;;;;;;;9.90;5.90;;;;;;;18.66;63.52;96742.98;108869;1250;101020;-73
2023/05/23 07:40:42;;;;;;;10.70;5.60;;;;;;;18.88;63.26;96740.33;108864;1250;100020;-72
2023/05/23 07:43:10;;;;;;;10.40;6.10;;;;;;;19.17;62.96;96739.86;108841;1250;95611;-76
2023/05/23 07:45:38;;;;;;;12.00;5.90;;;;;;;19.51;62.04;96737.86;108826;1250;95997;-75
2023/05/23 07:48:06;;;;;;;10.70;5.60;;;;;;;19.90;61.44;96740.02;108901;1250;103243;-76
2023/05/23 07:50:34;;;;;;;10.70;5.70;;;;;;;20.36;60.61;96742.20;108922;1250;101671;-76
2023/05/23 07:53:03;;;;;;;11.10;5.10;;;;;;;20.79;59.48;96741.52;108772;1251;99930;-76
2023/05/23 07:55:31;;;;;;;7.30;5.10;;;;;;;21.24;58.99;96735.24;108907;1250;95530;-75
2023/05/23 07:57:59;;;;;;;7.40;5.50;;;;;;;21.73;58.94;96733.27;108955;1249;95767;-73
2023/05/23 08:00:27;;;;;;;7.50;5.00;;;;;;;22.19;58.30;96728.69;109001;1250;103538;-73
2023/05/23 08:02:55;;;;;;;8.80;4.90;;;;;;;22.70;56.56;96729.34;108922;1250;101122;-76
2023/05/23 08:05:24;;;;;;;6.80;4.80;;;;;;;23.14;55.57;96728.66;108905;1249;99885;-74
2023/05/23 08:07:54;;;;;;;6.70;4.70;;;;;;;23.62;55.17;96725.73;108885;1251;95552;-74
2023/05/23 08:10:22;;;;;;;7.70;4.20;;;;;;;24.08;53.59;96730.41;108957;1249;95724;-76
2023/05/23 08:12:50;;;;;;;9.80;4.70;;;;;;;24.41;52.59;96726.32;108981;1250;103671;-73
2023/05/23 08:15:18;;;;;;;6.70;4.50;;;;;;;24.78;52.47;96726.76;108886;1250;101340;-74
2023/05/23 08:17:47;;;;;;;6.00;4.40;;;;;;;25.18;51.56;96725.35;108943;1250;99954;-74
2023/05/23 08:20:15;;;;;;;9.20;4.80;;;;;;;25.52;50.57;96726.41;108822;1250;95641;-74
2023/05/23 08:22:43;;;;;;;6.60;4.50;;;;;;;25.86;49.82;96725.63;108772;1250;96727;-75
2023/05/23 08:25:11;;;;;;;6.60;4.50;;;;;;;26.21;48.53;96723.48;108959;1250;112153;-74
2023/05/23 08:27:39;;;;;;;7.00;4.10;;;;;;;26.56;47.88;96722.64;108969;1249;101448;-74
2023/05/23 08:30:08;;;;;;;6.20;4.20;;;;;;;26.93;46.54;96721.14;108816;1250;99669;-75
2023/05/23 08:32:36;;;;;;;5.50;4.40;;;;;;;27.28;45.36;96722.62;108741;1250;95696;-75
2023/05/23 08:35:05;;;;;;;7.50;4.50;;;;;;;27.62;44.70;96725.11;108916;1250;95868;-75
2023/05/23 08:37:33;;;;;;;7.00;4.50;;;;;;;27.98;43.93;96722.27;108947;1250;103713;-74
2023/05/23 08:40:02;;;;;;;6.90;4.00;;;;;;;28.24;43.35;96716.97;108874;1250;101796;-74
2023/05/23 08:42:31;;;;;;;7.40;4.50;;;;;;;28.57;42.75;96718.68;108936;1250;100092;-74
2023/05/23 08:45:01;;;;;;;11.60;4.80;;;;;;;28.81;42.03;96719.14;108903;1250;95792;-74
2023/05/23 08:47:34;;;;;;;6.70;4.40;;;;;;;29.11;41.42;96720.86;108711;1251;95792;-72
2023/05/23 08:50:05;;;;;;;7.20;4.50;;;;;;;29.47;40.34;96721.07;108873;1250;102577;-75
2023/05/23 08:52:35;;;;;;;5.70;4.30;;;;;;;29.76;39.86;96716.17;108889;1250;101126;-72
2023/05/23 08:55:04;;;;;;;5.00;4.20;;;;;;;30.02;39.44;96721.09;108865;1250;99561;-72
2023/05/23 08:57:34;;;;;;;7.70;4.60;;;;;;;30.10;38.69;96719.72;108823;1250;95605;-74
2023/05/23 09:00:04;;;;;;;7.30;4.40;;;;;;;30.09;38.08;96715.23;108943;1250;95583;-75
2023/05/23 09:02:33;;;;;;;10.00;4.10;;;;;;;30.19;38.22;96711.08;108876;1250;103132;-73
2023/05/23 09:05:01;;;;;;;8.10;5.00;;;;;;;30.18;37.84;96708.83;108950;1250;101324;-73
2023/05/23 09:07:29;;;;;;;7.30;4.20;;;;;;;30.34;37.34;96704.73;108876;1250;100058;-72
2023/05/23 09:09:58;;;;;;;5.60;4.30;;;;;;;30.32;37.01;96705.24;108888;1250;95559;-72
2023/05/23 09:12:26;;;;;;;7.60;4.10;;;;;;;30.29;37.02;96703.48;108877;1250;96030;-73
2023/05/23 09:14:54;;;;;;;6.90;4.40;;;;;;;30.51;36.45;96707.09;108923;1250;103269;-74
2023/05/23 09:17:22;;;;;;;6.50;4.30;;;;;;;30.72;35.93;96707.52;108835;1250;101401;-74
2023/05/23 09:19:51;;;;;;;5.90;4.00;;;;;;;30.94;35.47;96706.33;108871;1250;99546;-71
2023/05/23 09:22:25;;;;;;;7.80;4.10;;;;;;;31.19;35.20;96707.28;108845;1252;95488;-72
2023/05/23 09:24:57;;;;;;;6.70;3.70;;;;;;;31.43;34.67;96708.88;108930;1251;95697;-71
2023/05/23 09:27:25;;;;;;;6.50;3.50;;;;;;;31.61;34.33;96704.38;108977;1250;103338;-72
2023/05/23 09:29:53;;;;;;;4.00;3.40;;;;;;;31.43;34.37;96703.08;108903;1250;101374;-72
2023/05/23 09:32:21;;;;;;;5.80;3.80;;;;;;;31.05;34.31;96705.65;108919;1250;99950;-71
2023/05/23 09:35:02;;;;;;;7.30;4.00;;;;;;;30.97;34.15;96707.05;108880;1250;95560;-74
2023/05/23 09:37:31;;;;;;;6.90;4.20;;;;;;;30.66;34.06;96704.17;108984;1250;95586;-72
2023/05/23 09:40:01;;;;;;;6.70;3.80;;;;;;;30.24;34.67;96701.19;108955;1250;103618;-73
2023/05/23 09:42:34;;;;;;;6.70;4.10;;;;;;;29.98;34.72;96699.16;108893;1250;101416;-72
2023/05/23 09:45:03;;;;;;;6.80;4.30;;;;;;;29.82;34.85;96695.90;108881;1250;99899;-74
2023/05/23 09:47:31;;;;;;;12.20;4.40;;;;;;;29.94;34.72;96697.45;108903;1250;95891;-72
2023/05/23 09:49:59;;;;;;;7.10;4.20;;;;;;;30.19;34.21;96694.61;108942;1250;95737;-72
2023/05/23 09:52:27;;;;;;;5.80;4.00;;;;;;;30.43;34.12;96697.67;108878;1250;103551;-74
2023/05/23 09:54:55;;;;;;;8.00;4.60;;;;;;;30.68;33.97;96698.66;108907;1250;101307;-74
2023/05/23 09:57:24;;;;;;;5.50;3.70;;;;;;;30.70;33.83;96695.77;108895;1250;100062;-73
2023/05/23 09:59:54;;;;;;;6.60;4.40;;;;;;;30.67;33.70;96693.63;108695;1250;95925;-73
2023/05/23 10:03:04;;;;;;;7.60;4.60;;;;;;;30.80;33.19;96692.75;108919;1250;96560;-71
2023/05/23 10:05:41;;;;;;;6.10;4.00;;;;;;;31.04;32.45;96687.45;108282;1258;103566;-72
2023/05/23 10:08:17;;;;;;;5.30;4.40;;;;;;;31.09;32.52;96689.75;108271;1259;101356;-73
2023/05/23 10:10:57;;;;;;;5.80;4.10;;;;;;;31.17;32.11;96679.98;108293;1259;99944;-72
2023/05/23 10:13:27;;;;;;;6.10;4.00;;;;;;;31.13;32.19;96678.86;108302;1258;95702;-71
2023/05/23 10:16:13;;;;;;;5.70;3.70;;;;;;;31.04;32.75;96675.30;108124;1257;95840;-72
2023/05/23 10:18:45;;;;;;;7.30;3.80;;;;;;;30.90;33.31;96678.52;108275;1259;103484;-72
2023/05/23 10:21:19;;;;;;;;;;;;;;;30.87;32.74;96673.91;108296;1259;101247;-72
2023/05/23 10:23:48;;;;;;;7.10;3.80;;;;;;;30.81;32.40;96668.42;108298;1258;99981;-72
2023/05/23 10:26:18;;;;;;;8.90;4.10;;;;;;;30.87;32.78;96663.34;108233;1257;95700;-73
2023/05/23 10:28:49;;;;;;;7.20;4.00;;;;;;;30.93;32.63;96661.01;108285;1258;95766;-73
2023/05/23 10:31:18;;;;;;;5.30;3.80;;;;;;;31.00;32.94;96660.47;108282;1258;103544;-72
2023/05/23 10:33:55;;;;;;;10.70;3.70;;;;;;;30.93;32.61;96656.00;108237;1258;101370;-73
2023/05/23 10:36:35;;;;;;;10.70;4.60;;;;;;;30.67;32.96;96651.94;108271;1259;99947;-72
2023/05/23 10:39:19;;;;;;;5.60;4.20;;;;;;;30.77;32.90;96653.27;108258;1258;95647;-72
2023/05/23 10:41:53;;;;;;;5.70;3.90;;;;;;;30.96;32.03;96649.84;108358;1251;95729;-74
2023/05/23 10:44:32;;;;;;;7.60;4.20;;;;;;;30.97;32.07;96647.80;108841;1250;103624;-71
2023/05/23 10:47:01;;;;;;;4.70;4.20;;;;;;;31.05;32.41;96648.23;108803;1250;101548;-72
2023/05/23 10:49:42;;;;;;;8.50;3.90;;;;;;;31.17;33.05;96646.95;108852;1250;99937;-71
2023/05/23 10:52:13;;;;;;;7.20;4.40;;;;;;;31.27;33.17;96639.77;108888;1251;95666;-72
2023/05/23 10:54:52;;;;;;;5.50;4.40;;;;;;;31.36;33.05;96633.84;108865;1250;95760;-73
2023/05/23 10:57:27;;;;;;;5.20;3.80;;;;;;;31.39;33.26;96630.72;108917;1250;103302;-72
2023/05/23 10:59:56;;;;;;;5.90;4.50;;;;;;;31.27;32.60;96630.05;108942;1250;101469;-72
2023/05/23 11:02:28;;;;;;;4.10;3.70;;;;;;;31.20;31.71;96624.39;108908;1250;99494;-72
2023/05/23 11:05:20;;;;;;;5.80;4.00;;;;;;;31.30;32.27;96631.06;108668;1250;95768;-74
2023/05/23 11:08:13;;;;;;;5.60;4.50;;;;;;;31.39;32.31;96627.84;108640;1251;96048;-72
2023/05/23 11:10:57;;;;;;;6.50;4.30;;;;;;;31.30;32.36;96628.05;108911;1250;103240;-72
2023/05/23 11:13:25;;;;;;;5.40;4.80;;;;;;;31.14;33.08;96632.95;108955;1250;101548;-73
2023/05/23 11:15:53;;;;;;;10.10;4.50;;;;;;;31.21;33.04;96629.45;108495;1256;98863;-72
2023/05/23 11:18:27;;;;;;;6.00;4.20;;;;;;;31.28;33.22;96629.84;108741;1253;95737;-72
2023/05/23 11:21:01;;;;;;;5.20;4.00;;;;;;;31.37;32.35;96623.66;108766;1253;95776;-73
2023/05/23 11:23:41;;;;;;;5.90;4.60;;;;;;;31.44;32.43;96618.15;108578;1253;103091;-72
2023/05/23 11:26:32;;;;;;;6.50;4.20;;;;;;;31.46;32.30;96613.66;108772;1252;101321;-72
2023/05/23 11:29:02;;;;;;;9.70;4.30;;;;;;;31.52;32.55;96606.05;108570;1253;99944;-73
2023/05/23 11:31:31;;;;;;;7.60;4.60;;;;;;;31.54;32.33;96602.52;108607;1254;95613;-72